Time;durP1;ratioP1;P1;durP2;ratioP2;P2;SDS_P1;SDS_P2;PMS_P1;PMS_P2;Temp;Humidity;BMP_temperature;BMP_pressure;BME280_temperature;BME280_humidity;BME280_pressure;Samples;Min_cycle;Max_cycle;Signal;HPM_P1;HPM_P2
2023/02/04 00:00:53;;;;;;;3.88;2.45;;;;;;;;;;5048475;28;20280;-50
2023/02/04 00:03:19;;;;;;;3.28;2.25;;;;;;;;;;5048669;28;20562;-50
2023/02/04 00:05:45;;;;;;;3.40;2.28;;;;;;;;;;5048312;28;20017;-47
2023/02/04 00:08:11;;;;;;;3.03;2.20;;;;;;;;;;5047957;28;20416;-49
2023/02/04 00:10:38;;;;;;;5.93;3.25;;;;;;;;;;5048070;28;20097;-50
2023/02/04 00:13:04;;;;;;;4.15;2.78;;;;;;;;;;5047811;28;20534;-50
2023/02/04 00:15:31;;;;;;;3.63;2.30;;;;;;;;;;5047190;28;20033;-48
2023/02/04 00:17:57;;;;;;;4.28;2.40;;;;;;;;;;5046140;28;20136;-49
2023/02/04 00:20:24;;;;;;;3.85;2.50;;;;;;;;;;5047005;28;20558;-50
2023/02/04 00:22:50;;;;;;;4.43;3.00;;;;;;;;;;5046823;28;20033;-47
2023/02/04 00:25:17;;;;;;;3.72;2.80;;;;;;;;;;5047237;28;20025;-50
2023/02/04 00:27:43;;;;;;;3.33;2.22;;;;;;;;;;5046541;28;20056;-50
2023/02/04 00:30:09;;;;;;;2.20;1.92;;;;;;;;;;5046695;28;20052;-52
2023/02/04 00:32:36;;;;;;;3.03;2.15;;;;;;;;;;5045755;28;20028;-50
2023/02/04 00:35:03;;;;;;;3.53;2.20;;;;;;;;;;5046628;28;20021;-50
2023/02/04 00:37:29;;;;;;;2.85;1.63;;;;;;;;;;5046668;28;20036;-49
2023/02/04 00:39:56;;;;;;;1.95;1.63;;;;;;;;;;5046500;28;20103;-48
2023/02/04 00:42:22;;;;;;;2.33;1.60;;;;;;;;;;5046074;28;20029;-48
2023/02/04 00:44:48;;;;;;;2.22;1.60;;;;;;;;;;5047226;28;20021;-49
2023/02/04 00:47:14;;;;;;;3.50;1.75;;;;;;;;;;5045998;28;20033;-48
2023/02/04 00:49:40;;;;;;;2.65;1.35;;;;;;;;;;5046789;28;20031;-50
2023/02/04 00:52:06;;;;;;;1.67;1.23;;;;;;;;;;5045959;28;20063;-48
2023/02/04 00:54:32;;;;;;;2.17;1.63;;;;;;;;;;5046264;28;20025;-50
2023/02/04 00:56:58;;;;;;;1.95;1.38;;;;;;;;;;5045953;28;20391;-50
2023/02/04 00:59:25;;;;;;;2.90;1.58;;;;;;;;;;5046150;28;20033;-49
2023/02/04 01:01:52;;;;;;;2.28;1.52;;;;;;;;;;5046161;28;20032;-47
2023/02/04 01:04:18;;;;;;;1.42;1.15;;;;;;;;;;5046196;28;20025;-48
2023/02/04 06:11:14;;;;;;;4.07;2.20;;;;;;;;;;5045085;28;20143;-48
2023/02/04 06:13:40;;;;;;;2.47;1.90;;;;;;;;;;5010506;28;1095728;-49
2023/02/04 06:16:06;;;;;;;2.67;1.65;;;;;;;;;;5048836;28;20099;-50
2023/02/04 06:18:32;;;;;;;2.85;1.60;;;;;;;;;;5049277;28;20416;-49
2023/02/04 06:20:58;;;;;;;3.92;1.92;;;;;;;;;;5048779;28;20033;-49
2023/02/04 06:23:24;;;;;;;3.42;2.00;;;;;;;;;;5049133;28;20025;-50
2023/02/04 06:25:50;;;;;;;3.63;2.10;;;;;;;;;;5048526;28;20578;-49
2023/02/04 06:28:16;;;;;;;4.95;2.63;;;;;;;;;;5048948;28;20039;-49
2023/02/04 06:30:43;;;;;;;5.75;3.00;;;;;;;;;;5048151;28;20541;-51
2023/02/04 06:33:09;;;;;;;5.28;3.28;;;;;;;;;;5048784;28;20029;-52
2023/02/04 06:35:35;;;;;;;5.45;2.40;;;;;;;;;;5047376;28;20059;-52
2023/02/04 06:38:01;;;;;;;3.47;2.20;;;;;;;;;;5048831;28;20456;-51
2023/02/04 06:40:27;;;;;;;4.63;2.50;;;;;;;;;;5048309;28;20048;-48
2023/02/04 06:42:53;;;;;;;3.72;2.08;;;;;;;;;;5048697;28;20040;-47
2023/02/04 06:45:19;;;;;;;3.78;2.20;;;;;;;;;;5048346;28;20399;-49
2023/02/04 06:47:45;;;;;;;4.53;2.55;;;;;;;;;;5048389;28;20029;-51
2023/02/04 06:50:11;;;;;;;6.25;3.92;;;;;;;;;;5048458;28;20404;-48
2023/02/04 06:52:37;;;;;;;9.20;4.65;;;;;;;;;;5048279;28;20029;-50
2023/02/04 06:55:03;;;;;;;8.60;4.40;;;;;;;;;;5051497;28;20025;-49
2023/02/04 06:57:29;;;;;;;8.35;4.05;;;;;;;;;;5048327;28;20056;-48
2023/02/04 06:59:55;;;;;;;6.50;3.70;;;;;;;;;;5047962;28;20025;-48
2023/02/04 07:02:22;;;;;;;6.82;4.47;;;;;;;;;;5048569;28;20036;-48
2023/02/04 07:04:48;;;;;;;6.30;4.43;;;;;;;;;;5048259;28;20029;-50
2023/02/04 07:07:14;;;;;;;5.88;3.67;;;;;;;;;;5048178;28;20059;-48
2023/02/04 07:09:41;;;;;;;6.03;3.28;;;;;;;;;;5047952;28;20029;-50
2023/02/04 07:12:07;;;;;;;5.32;3.42;;;;;;;;;;5047718;28;20059;-49
2023/02/04 07:14:33;;;;;;;5.50;3.35;;;;;;;;;;5047783;28;20481;-51
2023/02/04 07:16:59;;;;;;;8.38;3.95;;;;;;;;;;5048093;28;20039;-52
2023/02/04 07:19:26;;;;;;;9.05;3.72;;;;;;;;;;5048191;28;20039;-49
2023/02/04 07:21:55;;;;;;;8.65;4.28;;;;;;;;;;5048115;28;20154;-50
2023/02/04 07:24:21;;;;;;;7.45;4.80;;;;;;;;;;5048373;28;20029;-50
2023/02/04 07:26:47;;;;;;;8.10;4.38;;;;;;;;;;5047896;28;20025;-52
2023/02/04 07:29:13;;;;;;;7.65;4.50;;;;;;;;;;5047755;28;20657;-49
2023/02/04 07:31:39;;;;;;;6.20;3.72;;;;;;;;;;5044262;28;20396;-50
2023/02/04 07:34:05;;;;;;;7.07;3.50;;;;;;;;;;5048024;28;20617;-51
2023/02/04 07:36:31;;;;;;;4.00;2.83;;;;;;;;;;5048000;28;20049;-48
2023/02/04 07:38:57;;;;;;;6.43;3.28;;;;;;;;;;5047881;28;20622;-50
2023/02/04 07:41:23;;;;;;;4.97;2.78;;;;;;;;;;5048133;28;20497;-48
2023/02/04 07:43:49;;;;;;;5.15;2.85;;;;;;;;;;5050541;28;20112;-51
2023/02/04 07:46:16;;;;;;;4.20;2.33;;;;;;;;;;5051660;28;20037;-51
2023/02/04 07:48:42;;;;;;;5.05;2.40;;;;;;;;;;5051705;28;20025;-47
2023/02/04 07:51:09;;;;;;;3.65;2.70;;;;;;;;;;5051231;28;20021;-50
2023/02/04 07:53:35;;;;;;;4.35;3.13;;;;;;;;;;5051290;28;20033;-48
2023/02/04 07:56:01;;;;;;;3.92;2.78;;;;;;;;;;5051533;28;20029;-50
2023/02/04 07:58:27;;;;;;;3.72;2.88;;;;;;;;;;5051456;28;20059;-49
2023/02/04 08:00:53;;;;;;;3.53;2.53;;;;;;;;;;5051433;28;20033;-53
2023/02/04 08:03:19;;;;;;;3.15;2.33;;;;;;;;;;5051527;28;20044;-48
2023/02/04 08:05:45;;;;;;;4.57;2.88;;;;;;;;;;5051240;28;20028;-52
2023/02/04 08:08:11;;;;;;;4.38;2.63;;;;;;;;;;5050903;28;20021;-52
2023/02/04 08:10:37;;;;;;;2.55;1.90;;;;;;;;;;5051214;28;20096;-49
2023/02/04 08:13:03;;;;;;;3.15;2.20;;;;;;;;;;5050155;28;20488;-51
2023/02/04 08:15:29;;;;;;;3.08;1.90;;;;;;;;;;5049904;28;20116;-53
2023/02/04 08:17:55;;;;;;;4.47;2.20;;;;;;;;;;5051297;28;20095;-49
2023/02/04 08:20:22;;;;;;;2.80;2.00;;;;;;;;;;5051060;28;20033;-49
2023/02/04 08:22:48;;;;;;;5.07;3.03;;;;;;;;;;5050638;28;20029;-49
2023/02/04 08:25:14;;;;;;;4.35;3.22;;;;;;;;;;5051153;28;20025;-50
2023/02/04 08:27:40;;;;;;;4.07;2.72;;;;;;;;;;5050631;28;20107;-52
2023/02/04 08:30:06;;;;;;;2.97;2.28;;;;;;;;;;5050956;28;20028;-50
2023/02/04 08:32:32;;;;;;;2.50;2.00;;;;;;;;;;5051041;28;20035;-50
2023/02/04 08:34:59;;;;;;;3.53;2.20;;;;;;;;;;5051114;28;20609;-49
2023/02/04 08:37:25;;;;;;;3.05;2.22;;;;;;;;;;5051019;28;20029;-49
2023/02/04 08:39:51;;;;;;;2.80;2.20;;;;;;;;;;5047328;28;20026;-53
2023/02/04 08:42:17;;;;;;;3.38;2.40;;;;;;;;;;5030607;28;20034;-48
2023/02/04 08:44:43;;;;;;;3.80;2.55;;;;;;;;;;5044705;28;20048;-50
2023/02/04 08:47:09;;;;;;;2.65;2.33;;;;;;;;;;5050841;28;20052;-52
2023/02/04 08:49:36;;;;;;;2.50;1.77;;;;;;;;;;5050896;28;20036;-50
2023/02/04 08:52:03;;;;;;;2.60;1.77;;;;;;;;;;5049317;28;20078;-50
2023/02/04 08:54:29;;;;;;;2.53;1.95;;;;;;;;;;5049747;28;20393;-51
2023/02/04 08:56:55;;;;;;;2.25;2.05;;;;;;;;;;5049996;28;20128;-54
2023/02/04 08:59:23;;;;;;;2.60;2.08;;;;;;;;;;5050660;28;20094;-48
2023/02/04 09:01:51;;;;;;;2.60;1.98;;;;;;;;;;5049746;28;20033;-48
2023/02/04 09:04:17;;;;;;;2.08;1.60;;;;;;;;;;5048784;28;20031;-50
2023/02/04 09:06:43;;;;;;;2.90;1.98;;;;;;;;;;5048932;28;20035;-49
2023/02/04 09:09:10;;;;;;;2.30;1.85;;;;;;;;;;5048690;28;20067;-50
2023/02/04 09:11:36;;;;;;;2.35;1.90;;;;;;;;;;5048431;28;20029;-51
2023/02/04 09:14:02;;;;;;;2.47;2.17;;;;;;;;;;5049014;28;20107;-51
2023/02/04 09:16:28;;;;;;;2.28;2.03;;;;;;;;;;5048771;28;20025;-50
2023/02/04 09:18:54;;;;;;;2.50;1.95;;;;;;;;;;5048788;28;20033;-49
2023/02/04 09:21:21;;;;;;;2.15;1.95;;;;;;;;;;5048705;28;20032;-49
2023/02/04 09:23:47;;;;;;;3.65;2.00;;;;;;;;;;5048502;28;20028;-50
2023/02/04 09:26:13;;;;;;;3.17;2.10;;;;;;;;;;5048123;28;20040;-50
2023/02/04 09:28:39;;;;;;;2.60;2.00;;;;;;;;;;5047820;28;20024;-53
2023/02/04 09:31:05;;;;;;;5.65;3.15;;;;;;;;;;5048394;28;20033;-49
2023/02/04 09:33:32;;;;;;;7.60;3.60;;;;;;;;;;5048203;28;20025;-48
2023/02/04 09:35:58;;;;;;;6.13;3.63;;;;;;;;;;5048030;28;20029;-50
2023/02/04 09:38:24;;;;;;;6.55;3.58;;;;;;;;;;5048518;28;20036;-49
2023/02/04 09:40:53;;;;;;;7.07;4.15;;;;;;;;;;5048245;28;20275;-52
2023/02/04 09:43:24;;;;;;;8.68;4.72;;;;;;;;;;5047884;28;20070;-51
2023/02/04 09:45:52;;;;;;;11.07;5.85;;;;;;;;;;5048549;28;20029;-49
2023/02/04 09:48:18;;;;;;;9.50;5.32;;;;;;;;;;5047985;28;20431;-49
2023/02/04 09:50:45;;;;;;;8.75;5.30;;;;;;;;;;5047997;28;20021;-52
2023/02/04 09:53:14;;;;;;;9.50;4.85;;;;;;;;;;5047929;28;20033;-49
2023/02/04 09:55:43;;;;;;;7.57;4.63;;;;;;;;;;5047930;28;20086;-50
2023/02/04 09:58:17;;;;;;;9.43;4.70;;;;;;;;;;5047874;28;20150;-50
2023/02/04 10:00:43;;;;;;;7.30;4.18;;;;;;;;;;5047818;28;20056;-51
2023/02/04 10:03:21;;;;;;;6.82;3.90;;;;;;;;;;5047468;28;20033;-49
2023/02/04 10:05:47;;;;;;;5.68;3.10;;;;;;;;;;5047201;28;20040;-50
2023/02/04 10:08:15;;;;;;;5.13;3.05;;;;;;;;;;5047565;28;20029;-49
2023/02/04 10:10:41;;;;;;;4.45;2.78;;;;;;;;;;5046390;28;20025;-49
2023/02/04 10:13:09;;;;;;;3.35;2.30;;;;;;;;;;5045932;28;20245;-51
2023/02/04 10:15:36;;;;;;;3.03;2.08;;;;;;;;;;5045578;28;20142;-51
2023/02/04 10:18:03;;;;;;;2.67;2.00;;;;;;;;;;5046041;28;20040;-53
2023/02/04 10:20:29;;;;;;;1.98;1.58;;;;;;;;;;5045614;28;20040;-51
2023/02/04 10:22:56;;;;;;;2.28;1.75;;;;;;;;;;5045389;28;20028;-52
2023/02/04 10:25:23;;;;;;;2.67;1.58;;;;;;;;;;5046019;28;20414;-48
2023/02/04 10:27:51;;;;;;;1.63;1.33;;;;;;;;;;5045779;28;20032;-48
2023/02/04 10:30:21;;;;;;;2.45;1.48;;;;;;;;;;5045462;28;20071;-53
2023/02/04 10:32:47;;;;;;;2.33;1.77;;;;;;;;;;5045198;28;20040;-51
2023/02/04 10:35:14;;;;;;;2.20;1.90;;;;;;;;;;5046022;28;20107;-48
2023/02/04 10:37:40;;;;;;;2.65;1.60;;;;;;;;;;5046014;28;20043;-50
2023/02/04 10:40:24;;;;;;;1.13;1.02;;;;;;;;;;5045534;28;20108;-51
2023/02/04 10:42:52;;;;;;;2.63;1.80;;;;;;;;;;5044839;28;20056;-51
2023/02/04 10:45:25;;;;;;;2.17;1.58;;;;;;;;;;5045505;28;20028;-52
2023/02/04 10:50:56;;;;;;;1.40;1.30;;;;;;;;;;5045266;28;20032;-50
2023/02/04 10:56:18;;;;;;;1.60;1.50;;;;;;;;;;5045303;28;20079;-49
2023/02/04 10:58:44;;;;;;;2.95;1.80;;;;;;;;;;5045563;28;20083;-49
2023/02/04 11:01:14;;;;;;;2.25;1.50;;;;;;;;;;5045671;28;20416;-51
2023/02/04 11:03:40;;;;;;;1.63;1.50;;;;;;;;;;5044189;28;20536;-51
2023/02/04 11:06:11;;;;;;;1.40;1.20;;;;;;;;;;5045225;28;20112;-51
2023/02/04 11:08:38;;;;;;;1.67;1.55;;;;;;;;;;5045148;28;20021;-48
2023/02/04 11:11:05;;;;;;;1.95;1.60;;;;;;;;;;5044859;28;20411;-51
2023/02/04 11:13:49;;;;;;;1.63;1.40;;;;;;;;;;5026740;28;20037;-52
2023/02/04 11:16:18;;;;;;;2.13;1.92;;;;;;;;;;5025019;28;20033;-50
2023/02/04 11:18:57;;;;;;;2.00;1.70;;;;;;;;;;5028528;28;20033;-51
2023/02/04 11:21:43;;;;;;;1.50;1.35;;;;;;;;;;5029377;28;20485;-50
2023/02/04 11:24:09;;;;;;;1.20;1.10;;;;;;;;;;5029641;28;20554;-50
2023/02/04 11:26:36;;;;;;;1.30;1.20;;;;;;;;;;5029317;28;20311;-50
2023/02/04 11:29:02;;;;;;;1.42;1.23;;;;;;;;;;5029005;28;21050;-52
2023/02/04 11:31:39;;;;;;;2.20;1.10;;;;;;;;;;5029099;28;20022;-50
2023/02/04 11:34:23;;;;;;;1.40;1.30;;;;;;;;;;5028765;28;20099;-53
2023/02/04 11:37:11;;;;;;;1.92;1.40;;;;;;;;;;5029491;28;20029;-49
2023/02/04 11:39:38;;;;;;;2.08;1.63;;;;;;;;;;5018145;28;20052;-51
2023/02/04 11:42:16;;;;;;;1.88;1.40;;;;;;;;;;5026688;28;20429;-50
2023/02/04 11:44:47;;;;;;;2.90;1.67;;;;;;;;;;5025806;28;20071;-51
2023/02/04 11:47:13;;;;;;;1.60;1.40;;;;;;;;;;5031174;28;20053;-50
2023/02/04 11:49:40;;;;;;;4.65;3.45;;;;;;;;;;5029226;28;20030;-50
2023/02/04 11:52:07;;;;;;;4.30;3.00;;;;;;;;;;5026778;28;20116;-51
2023/02/04 11:54:35;;;;;;;3.97;2.75;;;;;;;;;;5030082;28;20128;-52
2023/02/04 11:57:01;;;;;;;6.72;3.10;;;;;;;;;;5030411;28;20068;-53
2023/02/04 11:59:27;;;;;;;3.58;2.53;;;;;;;;;;5029886;28;20508;-52
2023/02/04 12:02:03;;;;;;;4.75;2.58;;;;;;;;;;5029689;28;20029;-51
2023/02/04 12:04:29;;;;;;;5.32;2.67;;;;;;;;;;5030862;28;20532;-53
2023/02/04 12:07:02;;;;;;;3.03;2.00;;;;;;;;;;5027848;28;20026;-49
2023/02/04 12:09:30;;;;;;;2.30;1.60;;;;;;;;;;5011230;28;20057;-50
2023/02/04 12:11:57;;;;;;;1.88;1.33;;;;;;;;;;5015613;28;20128;-51
2023/02/04 12:14:27;;;;;;;2.67;1.92;;;;;;;;;;5049695;28;20033;-51
2023/02/04 12:16:55;;;;;;;4.07;1.98;;;;;;;;;;5050263;28;20017;-53
2023/02/04 12:19:21;;;;;;;1.83;1.45;;;;;;;;;;5049826;28;20128;-48
2023/02/04 12:21:47;;;;;;;1.40;1.30;;;;;;;;;;5050072;28;20021;-50
2023/02/04 12:24:13;;;;;;;2.00;1.20;;;;;;;;;;5050583;28;20496;-50
2023/02/04 12:26:39;;;;;;;3.05;1.73;;;;;;;;;;5050118;28;20029;-50
2023/02/04 12:29:05;;;;;;;1.42;1.30;;;;;;;;;;5049680;28;20029;-51
2023/02/04 12:31:32;;;;;;;0.93;0.90;;;;;;;;;;5049957;28;20404;-52
2023/02/04 12:33:58;;;;;;;1.52;1.15;;;;;;;;;;5045373;28;20120;-52
2023/02/04 12:36:26;;;;;;;1.80;1.58;;;;;;;;;;5046606;28;20499;-52
2023/02/04 12:38:52;;;;;;;1.98;1.45;;;;;;;;;;5049866;28;20373;-49
2023/02/04 12:41:19;;;;;;;2.40;1.83;;;;;;;;;;5048079;28;20392;-48
2023/02/04 12:43:45;;;;;;;1.80;1.00;;;;;;;;;;5052167;28;20119;-53
2023/02/04 12:46:11;;;;;;;2.15;1.45;;;;;;;;;;5048780;28;20055;-52
2023/02/04 12:48:40;;;;;;;1.20;1.10;;;;;;;;;;5048646;28;20086;-50
2023/02/04 12:51:06;;;;;;;1.75;1.60;;;;;;;;;;5047703;28;20025;-50
2023/02/04 12:53:32;;;;;;;2.05;1.13;;;;;;;;;;5047312;28;20075;-50
2023/02/04 12:55:59;;;;;;;2.72;1.80;;;;;;;;;;5048443;28;20025;-51
2023/02/04 12:58:26;;;;;;;2.13;1.45;;;;;;;;;;5047955;28;20078;-53
2023/02/04 13:00:52;;;;;;;2.13;1.45;;;;;;;;;;5048438;28;20036;-53
2023/02/04 13:03:19;;;;;;;1.85;1.40;;;;;;;;;;5048763;28;20064;-52
2023/02/04 13:05:45;;;;;;;2.67;1.40;;;;;;;;;;5048332;28;20021;-54
2023/02/04 13:08:12;;;;;;;1.67;1.23;;;;;;;;;;5046881;28;20504;-53
2023/02/04 13:10:39;;;;;;;1.60;1.30;;;;;;;;;;5047809;28;20404;-50
2023/02/04 13:13:05;;;;;;;3.45;2.10;;;;;;;;;;5047122;28;20041;-52
2023/02/04 13:15:31;;;;;;;4.28;2.47;;;;;;;;;;5052984;28;20135;-50
2023/02/04 13:17:57;;;;;;;2.67;1.83;;;;;;;;;;5046823;28;20063;-50
2023/02/04 13:20:23;;;;;;;3.45;2.25;;;;;;;;;;5048099;28;20032;-51
2023/02/04 13:22:49;;;;;;;2.17;1.67;;;;;;;;;;5047976;28;20029;-49
2023/02/04 13:25:15;;;;;;;3.50;1.95;;;;;;;;;;5047848;28;20545;-49
2023/02/04 13:27:41;;;;;;;1.88;1.35;;;;;;;;;;5048624;28;20035;-53
2023/02/04 13:30:08;;;;;;;2.20;1.60;;;;;;;;;;5047717;28;20396;-52
2023/02/04 13:32:34;;;;;;;1.67;1.40;;;;;;;;;;5045976;28;20566;-50
2023/02/04 13:35:00;;;;;;;3.65;1.60;;;;;;;;;;5047228;28;20290;-51
2023/02/04 13:37:26;;;;;;;3.17;1.63;;;;;;;;;;5047797;28;20025;-52
2023/02/04 13:39:52;;;;;;;1.60;1.02;;;;;;;;;;5046718;28;20490;-49
2023/02/04 13:42:18;;;;;;;1.23;1.10;;;;;;;;;;5047274;28;20798;-53
2023/02/04 13:44:45;;;;;;;1.48;1.20;;;;;;;;;;5047996;28;20031;-50
2023/02/04 13:47:11;;;;;;;1.10;0.90;;;;;;;;;;5047719;28;20033;-51
2023/02/04 13:49:38;;;;;;;1.20;1.10;;;;;;;;;;5047319;28;20400;-50
2023/02/04 13:52:04;;;;;;;1.10;1.00;;;;;;;;;;5047060;28;20710;-51
2023/02/04 13:54:30;;;;;;;1.00;0.90;;;;;;;;;;5045283;28;20095;-50
2023/02/04 13:56:57;;;;;;;0.70;0.70;;;;;;;;;;5047116;28;20505;-50
2023/02/04 13:59:23;;;;;;;0.70;0.70;;;;;;;;;;5047515;28;20482;-50
2023/02/04 14:01:49;;;;;;;0.68;0.68;;;;;;;;;;5046897;28;20117;-49
2023/02/04 14:04:16;;;;;;;0.95;0.60;;;;;;;;;;5047328;28;20048;-49
2023/02/04 14:06:45;;;;;;;0.60;0.60;;;;;;;;;;5047862;28;20463;-52
2023/02/04 14:09:12;;;;;;;0.88;0.82;;;;;;;;;;5046751;28;20400;-52
2023/02/04 14:11:39;;;;;;;1.38;1.00;;;;;;;;;;5032399;28;20090;-48
2023/02/04 14:14:05;;;;;;;1.45;1.10;;;;;;;;;;5059014;28;20057;-48
2023/02/04 14:16:31;;;;;;;1.17;1.00;;;;;;;;;;5046595;28;20029;-51
2023/02/04 14:18:57;;;;;;;2.28;1.60;;;;;;;;;;5047842;28;20033;-54
2023/02/04 14:21:23;;;;;;;1.20;1.10;;;;;;;;;;5045441;28;20116;-49
2023/02/04 14:23:50;;;;;;;1.40;1.25;;;;;;;;;;5046500;28;20025;-52
2023/02/04 14:26:16;;;;;;;1.38;1.13;;;;;;;;;;5047005;28;20021;-49
2023/02/04 14:28:42;;;;;;;2.85;1.88;;;;;;;;;;5046605;28;20117;-50
2023/02/04 14:31:08;;;;;;;4.53;3.08;;;;;;;;;;5046579;28;20033;-49
2023/02/04 14:33:34;;;;;;;6.00;3.92;;;;;;;;;;5041687;28;20047;-50
2023/02/04 14:36:00;;;;;;;5.85;3.70;;;;;;;;;;5046270;28;20025;-49
2023/02/04 14:38:29;;;;;;;3.92;2.88;;;;;;;;;;5038222;28;20061;-52
2023/02/04 14:40:56;;;;;;;3.83;2.42;;;;;;;;;;5027316;28;20060;-49
2023/02/04 14:43:22;;;;;;;3.03;2.50;;;;;;;;;;5039903;28;20488;-49
2023/02/04 14:45:48;;;;;;;3.33;2.10;;;;;;;;;;5045619;28;20028;-49
2023/02/04 14:48:14;;;;;;;2.35;1.83;;;;;;;;;;5046399;28;20462;-52
2023/02/04 14:50:40;;;;;;;2.58;2.00;;;;;;;;;;5059705;28;20074;-50
2023/02/04 14:53:06;;;;;;;1.70;1.45;;;;;;;;;;5061492;28;20029;-51
2023/02/04 14:55:32;;;;;;;2.05;1.50;;;;;;;;;;5045018;28;20504;-53
2023/02/04 14:57:58;;;;;;;3.72;1.48;;;;;;;;;;5055923;28;20033;-52
2023/02/04 15:00:24;;;;;;;2.03;1.63;;;;;;;;;;5063948;28;20082;-51
2023/02/04 15:02:51;;;;;;;1.80;1.50;;;;;;;;;;5045823;28;20470;-49
2023/02/04 15:05:17;;;;;;;1.95;1.70;;;;;;;;;;5063465;28;20029;-49
2023/02/04 15:07:43;;;;;;;1.88;1.70;;;;;;;;;;5064592;28;20302;-48
2023/02/04 15:10:10;;;;;;;1.77;1.42;;;;;;;;;;5064378;28;20032;-49
2023/02/04 15:12:36;;;;;;;3.05;2.13;;;;;;;;;;5056650;28;20093;-49
2023/02/04 15:15:02;;;;;;;2.58;2.03;;;;;;;;;;5058988;28;20031;-50
2023/02/04 15:17:28;;;;;;;3.95;2.30;;;;;;;;;;5053321;28;20033;-48
2023/02/04 15:19:54;;;;;;;2.08;1.58;;;;;;;;;;5051347;28;20047;-48
2023/02/04 15:22:20;;;;;;;1.88;1.63;;;;;;;;;;5051274;28;20040;-52
2023/02/04 15:24:47;;;;;;;3.97;2.20;;;;;;;;;;5044684;28;20369;-48
2023/02/04 15:27:13;;;;;;;3.15;2.05;;;;;;;;;;5026056;28;20531;-50
2023/02/04 15:29:39;;;;;;;5.78;3.47;;;;;;;;;;5025469;28;20024;-50
2023/02/04 15:32:05;;;;;;;8.43;3.88;;;;;;;;;;5038946;28;20527;-50
2023/02/04 15:34:31;;;;;;;7.13;3.35;;;;;;;;;;5045793;28;20036;-50
2023/02/04 15:36:57;;;;;;;10.27;4.10;;;;;;;;;;5065070;28;20028;-47
2023/02/04 15:39:23;;;;;;;8.98;3.75;;;;;;;;;;5064816;28;20652;-52
2023/02/04 15:41:49;;;;;;;10.27;4.38;;;;;;;;;;5062791;28;20025;-49
2023/02/04 15:44:15;;;;;;;6.45;3.15;;;;;;;;;;5064745;28;20036;-51
2023/02/04 15:46:41;;;;;;;7.07;3.63;;;;;;;;;;5063649;28;20107;-53
2023/02/04 15:49:08;;;;;;;6.43;3.30;;;;;;;;;;5050329;28;20453;-48
2023/02/04 15:51:34;;;;;;;8.18;3.97;;;;;;;;;;5044650;28;20888;-48
2023/02/04 15:54:00;;;;;;;6.60;3.03;;;;;;;;;;5043828;28;20500;-50
2023/02/04 15:56:26;;;;;;;6.88;3.42;;;;;;;;;;5044995;28;20029;-49
2023/02/04 15:58:53;;;;;;;8.02;4.30;;;;;;;;;;5053590;28;20479;-49
2023/02/04 16:01:19;;;;;;;6.43;3.55;;;;;;;;;;5057138;28;20029;-52
2023/02/04 16:03:46;;;;;;;6.72;3.60;;;;;;;;;;5046210;28;20035;-51
2023/02/04 16:06:12;;;;;;;6.57;3.78;;;;;;;;;;5049630;28;20404;-49
2023/02/04 16:08:38;;;;;;;5.28;3.28;;;;;;;;;;5051315;28;20090;-49
2023/02/04 16:11:04;;;;;;;7.85;4.22;;;;;;;;;;5060760;28;20096;-50
2023/02/04 16:13:31;;;;;;;9.25;5.43;;;;;;;;;;5044609;28;20660;-50
2023/02/04 16:15:57;;;;;;;11.65;5.45;;;;;;;;;;5045416;28;20108;-49
2023/02/04 16:18:24;;;;;;;8.40;4.60;;;;;;;;;;5045965;28;20710;-53
2023/02/04 16:20:50;;;;;;;9.63;5.20;;;;;;;;;;5042938;28;20051;-48
2023/02/04 16:23:16;;;;;;;7.35;4.30;;;;;;;;;;5034533;28;20040;-50
2023/02/04 16:25:42;;;;;;;9.00;5.18;;;;;;;;;;5047483;28;20428;-53
2023/02/04 16:28:08;;;;;;;6.47;4.15;;;;;;;;;;5048773;28;20024;-50
2023/02/04 16:30:34;;;;;;;6.15;4.03;;;;;;;;;;5047565;28;20033;-51
2023/02/04 16:33:00;;;;;;;4.30;3.05;;;;;;;;;;5047253;28;20035;-50
2023/02/04 16:35:27;;;;;;;4.90;3.50;;;;;;;;;;5048122;28;20037;-51
2023/02/04 16:37:53;;;;;;;3.60;2.70;;;;;;;;;;5041134;28;20037;-52
2023/02/04 16:40:19;;;;;;;3.28;2.40;;;;;;;;;;5047913;28;20033;-51
2023/02/04 16:42:45;;;;;;;3.15;2.35;;;;;;;;;;5047813;28;20021;-50
2023/02/04 16:45:12;;;;;;;3.72;2.67;;;;;;;;;;5048177;28;20029;-51
2023/02/04 16:47:38;;;;;;;3.03;2.72;;;;;;;;;;5058088;28;20044;-51
2023/02/04 16:50:04;;;;;;;3.70;2.80;;;;;;;;;;5054400;28;20036;-50
2023/02/04 16:52:31;;;;;;;4.35;2.78;;;;;;;;;;5045232;28;20029;-51
2023/02/04 16:54:58;;;;;;;4.00;3.13;;;;;;;;;;5049936;28;20033;-50
2023/02/04 16:57:24;;;;;;;10.02;5.38;;;;;;;;;;5045122;28;20040;-49
2023/02/04 16:59:50;;;;;;;8.57;5.05;;;;;;;;;;5045454;28;20416;-51
2023/02/04 17:02:16;;;;;;;13.07;6.40;;;;;;;;;;5044462;28;20037;-52
2023/02/04 17:04:43;;;;;;;10.23;5.32;;;;;;;;;;5055108;28;20063;-51
2023/02/04 17:07:09;;;;;;;7.95;4.85;;;;;;;;;;5045202;28;20403;-51
2023/02/04 17:09:35;;;;;;;7.78;4.00;;;;;;;;;;5045017;28;20037;-48
2023/02/04 17:12:01;;;;;;;7.32;4.10;;;;;;;;;;5051254;28;20032;-49
2023/02/04 17:14:28;;;;;;;5.65;3.80;;;;;;;;;;5058154;28;20039;-49
2023/02/04 17:16:54;;;;;;;6.03;3.35;;;;;;;;;;5053858;28;20644;-51
2023/02/04 17:19:20;;;;;;;5.53;3.53;;;;;;;;;;5057024;28;20029;-51
2023/02/04 17:21:47;;;;;;;5.28;3.25;;;;;;;;;;5049148;28;20025;-48
2023/02/04 17:24:13;;;;;;;5.05;2.97;;;;;;;;;;5049938;28;20029;-49
2023/02/04 17:26:39;;;;;;;4.68;2.80;;;;;;;;;;5053466;28;20104;-50
2023/02/04 17:29:06;;;;;;;5.78;3.53;;;;;;;;;;5061305;28;20036;-49
2023/02/04 17:31:32;;;;;;;6.72;3.47;;;;;;;;;;5045733;28;20036;-48
2023/02/04 17:33:58;;;;;;;6.38;3.75;;;;;;;;;;5059878;28;20036;-51
2023/02/04 17:36:24;;;;;;;5.55;3.50;;;;;;;;;;5056541;28;20057;-51
2023/02/04 17:38:50;;;;;;;4.75;2.85;;;;;;;;;;5051776;28;20114;-48
2023/02/04 17:41:16;;;;;;;5.10;3.10;;;;;;;;;;5045566;28;20055;-49
2023/02/04 17:43:42;;;;;;;5.72;3.17;;;;;;;;;;5051978;28;20087;-47
2023/02/04 17:46:08;;;;;;;5.18;3.20;;;;;;;;;;5050188;28;20496;-49
2023/02/04 17:48:34;;;;;;;3.47;2.60;;;;;;;;;;5054433;28;20024;-50
2023/02/04 17:51:00;;;;;;;4.85;2.90;;;;;;;;;;5054931;28;20029;-52
2023/02/04 17:53:27;;;;;;;5.00;3.20;;;;;;;;;;5054362;28;20028;-49
2023/02/04 17:55:53;;;;;;;5.72;3.45;;;;;;;;;;5044800;28;20103;-50
2023/02/04 17:58:21;;;;;;;4.55;3.05;;;;;;;;;;5047198;28;20036;-48
2023/02/04 18:00:50;;;;;;;3.38;2.40;;;;;;;;;;5054008;28;20032;-48
2023/02/04 18:03:20;;;;;;;3.75;2.60;;;;;;;;;;5049739;28;20036;-47
2023/02/04 18:05:47;;;;;;;3.80;2.65;;;;;;;;;;5053194;28;20029;-51
2023/02/04 18:08:21;;;;;;;4.20;3.42;;;;;;;;;;5046899;28;20025;-50
2023/02/04 18:10:49;;;;;;;4.25;3.03;;;;;;;;;;5059559;28;20495;-48
2023/02/04 18:13:16;;;;;;;4.05;2.85;;;;;;;;;;5053184;28;20369;-50
2023/02/04 18:15:46;;;;;;;4.55;3.17;;;;;;;;;;5052429;28;20037;-49
2023/02/04 18:18:38;;;;;;;4.03;2.90;;;;;;;;;;5054048;28;20038;-51
2023/02/04 18:21:16;;;;;;;4.18;3.17;;;;;;;;;;5042922;28;20416;-48
2023/02/04 18:23:44;;;;;;;5.22;3.30;;;;;;;;;;5044991;28;20029;-49
2023/02/04 18:26:18;;;;;;;4.00;2.88;;;;;;;;;;5051407;28;20047;-48
2023/02/04 18:28:47;;;;;;;3.53;2.43;;;;;;;;;;5048948;28;20021;-49
2023/02/04 18:31:32;;;;;;;3.15;2.17;;;;;;;;;;5044796;28;20252;-50
2023/02/04 18:33:59;;;;;;;3.38;2.60;;;;;;;;;;5044460;28;20506;-48
2023/02/04 18:36:26;;;;;;;3.90;2.40;;;;;;;;;;5053970;28;20025;-48
2023/02/04 18:38:54;;;;;;;2.97;2.15;;;;;;;;;;5051721;28;20047;-50
2023/02/04 18:41:20;;;;;;;2.80;1.85;;;;;;;;;;5056577;28;20036;-49
2023/02/04 18:43:50;;;;;;;3.13;2.17;;;;;;;;;;5046063;28;20558;-48
2023/02/04 18:46:23;;;;;;;3.15;2.40;;;;;;;;;;5046358;28;20031;-48
2023/02/04 18:48:53;;;;;;;2.95;2.17;;;;;;;;;;5049285;28;20299;-49
2023/02/04 18:51:23;;;;;;;2.90;2.47;;;;;;;;;;5057372;28;20495;-50
2023/02/04 18:53:51;;;;;;;3.70;2.80;;;;;;;;;;5028087;28;20029;-48
2023/02/04 18:56:17;;;;;;;4.53;3.60;;;;;;;;;;5050201;28;20035;-50
2023/02/04 18:58:46;;;;;;;4.00;3.22;;;;;;;;;;5054388;28;20098;-53
2023/02/04 19:01:14;;;;;;;4.68;3.25;;;;;;;;;;5040981;28;20107;-49
2023/02/04 19:03:43;;;;;;;3.95;2.88;;;;;;;;;;5053141;28;20032;-49
2023/02/04 19:06:22;;;;;;;3.83;3.03;;;;;;;;;;5049161;28;20779;-50
2023/02/04 19:08:48;;;;;;;5.68;3.22;;;;;;;;;;5053348;28;20403;-49
2023/02/04 19:11:20;;;;;;;5.70;3.85;;;;;;;;;;5052706;28;20388;-51
2023/02/04 19:13:47;;;;;;;5.40;3.42;;;;;;;;;;5051356;28;20041;-49
2023/02/04 19:16:24;;;;;;;5.38;3.28;;;;;;;;;;5056965;28;20521;-48
2023/02/04 19:18:50;;;;;;;5.20;3.33;;;;;;;;;;5053822;28;20059;-51
2023/02/04 19:21:18;;;;;;;4.57;3.20;;;;;;;;;;5053820;28;20040;-50
2023/02/04 19:23:44;;;;;;;6.32;3.78;;;;;;;;;;5048798;28;20033;-48
2023/02/04 19:26:26;;;;;;;5.60;3.65;;;;;;;;;;5038294;28;20165;-51
2023/02/04 19:28:52;;;;;;;6.22;3.97;;;;;;;;;;5039655;28;20090;-51
2023/02/04 19:31:18;;;;;;;5.50;3.10;;;;;;;;;;5047170;28;20571;-47
2023/02/04 19:33:45;;;;;;;4.60;3.13;;;;;;;;;;5054013;28;20154;-50
2023/02/04 19:36:22;;;;;;;7.05;4.30;;;;;;;;;;5057557;28;20099;-48
2023/02/04 19:38:51;;;;;;;6.10;4.00;;;;;;;;;;5033765;28;20507;-51
2023/02/04 19:41:34;;;;;;;5.30;3.72;;;;;;;;;;5056023;28;20036;-48
2023/02/04 19:44:19;;;;;;;4.55;3.20;;;;;;;;;;5065018;28;20115;-47
2023/02/04 19:46:45;;;;;;;5.45;2.95;;;;;;;;;;5051070;28;20024;-52
2023/02/04 19:49:16;;;;;;;3.85;2.80;;;;;;;;;;5063551;28;20194;-51
2023/02/04 19:51:45;;;;;;;3.70;2.58;;;;;;;;;;5059669;28;20555;-49
2023/02/04 19:54:18;;;;;;;4.68;2.75;;;;;;;;;;5065355;28;20032;-49